Time;durP1;ratioP1;P1;durP2;ratioP2;P2;SDS_P1;SDS_P2;PMS_P1;PMS_P2;Temp;Humidity;BMP_temperature;BMP_pressure;BME280_temperature;BME280_humidity;BME280_pressure;Samples;Min_cycle;Max_cycle;Signal;HPM_P1;HPM_P2
2024/03/03 06:02:14;;;;;;;108.83;38.03;;;;;;;;;;5378821;22;20512;-76
2024/03/03 06:04:40;;;;;;;102.37;34.03;;;;;;;;;;5033279;28;20900;-76
2024/03/03 06:07:06;;;;;;;92.17;33.43;;;;;;;;;;5033559;28;20408;-77
2024/03/03 06:09:32;;;;;;;100.60;38.20;;;;;;;;;;5037444;28;20412;-76
2024/03/03 06:12:02;;;;;;;90.30;35.10;;;;;;;;;;5043245;28;20940;-76
2024/03/03 06:14:28;;;;;;;80.63;31.70;;;;;;;;;;5049826;22;21002;-73
2024/03/03 06:16:54;;;;;;;88.60;34.20;;;;;;;;;;5033724;28;20488;-73
2024/03/03 06:19:20;;;;;;;85.37;32.87;;;;;;;;;;5039159;28;20880;-73
2024/03/03 06:21:52;;;;;;;83.60;34.30;;;;;;;;;;5045758;28;20412;-74
2024/03/03 06:24:19;;;;;;;86.20;32.40;;;;;;;;;;5035418;28;20851;-74
2024/03/03 06:26:45;;;;;;;110.87;38.23;;;;;;;;;;5036104;28;20416;-71
2024/03/03 06:29:11;;;;;;;94.27;34.27;;;;;;;;;;5033691;28;20487;-72
2024/03/03 06:31:42;;;;;;;87.77;31.90;;;;;;;;;;5033878;28;20939;-73
2024/03/03 06:34:08;;;;;;;87.53;32.83;;;;;;;;;;5033927;28;20448;-74
2024/03/03 06:36:35;;;;;;;109.87;39.53;;;;;;;;;;5033402;28;20417;-74
2024/03/03 06:39:01;;;;;;;90.97;33.50;;;;;;;;;;5033358;28;20464;-72
2024/03/03 06:41:27;;;;;;;97.43;32.37;;;;;;;;;;5033514;28;20486;-73
2024/03/03 06:43:55;;;;;;;90.37;34.97;;;;;;;;;;5032996;28;20405;-74
2024/03/03 06:46:21;;;;;;;73.27;31.73;;;;;;;;;;5033210;28;20417;-72
2024/03/03 06:48:47;;;;;;;74.10;30.10;;;;;;;;;;5033099;28;20413;-74
2024/03/03 06:51:14;;;;;;;62.20;27.90;;;;;;;;;;5033183;28;20471;-73
2024/03/03 06:53:40;;;;;;;65.70;27.57;;;;;;;;;;5035478;28;20648;-73
2024/03/03 06:56:13;;;;;;;53.40;23.90;;;;;;;;;;5035590;28;20853;-72
2024/03/03 06:58:39;;;;;;;57.90;24.67;;;;;;;;;;5033473;28;20467;-74
2024/03/03 07:01:05;;;;;;;63.43;26.27;;;;;;;;;;5032733;28;20413;-73
2024/03/03 07:06:20;;;;;;;58.13;22.67;;;;;;;;;;5022443;28;20487;-73
2024/03/03 07:08:46;;;;;;;57.97;24.27;;;;;;;;;;5034428;28;20888;-74
2024/03/03 07:11:12;;;;;;;55.60;24.57;;;;;;;;;;5034656;28;20420;-75
2024/03/03 07:13:38;;;;;;;61.53;25.40;;;;;;;;;;5035435;28;20754;-74
2024/03/03 07:16:04;;;;;;;54.63;23.30;;;;;;;;;;5038275;28;20488;-72
2024/03/03 07:18:30;;;;;;;56.77;25.73;;;;;;;;;;5038533;28;20461;-73
2024/03/03 07:20:56;;;;;;;56.53;24.37;;;;;;;;;;5037500;28;20414;-74
2024/03/03 07:23:22;;;;;;;42.70;21.83;;;;;;;;;;5035051;28;20877;-75
2024/03/03 07:25:48;;;;;;;52.37;23.90;;;;;;;;;;5032301;28;20802;-73
2024/03/03 07:28:14;;;;;;;59.07;22.87;;;;;;;;;;5032920;28;20409;-73
2024/03/03 07:30:40;;;;;;;56.90;23.93;;;;;;;;;;5032678;28;20416;-73
2024/03/03 07:33:06;;;;;;;55.93;25.57;;;;;;;;;;5032325;28;20972;-74
2024/03/03 07:35:31;;;;;;;55.57;25.87;;;;;;;;;;5032962;28;20461;-72
2024/03/03 07:37:57;;;;;;;52.10;23.00;;;;;;;;;;5032712;28;20405;-74
2024/03/03 07:40:23;;;;;;;59.23;25.20;;;;;;;;;;5032358;28;20468;-72
2024/03/03 07:42:50;;;;;;;52.87;24.50;;;;;;;;;;5031187;28;20413;-74
2024/03/03 07:45:15;;;;;;;47.70;24.10;;;;;;;;;;5032379;28;20436;-72
2024/03/03 07:47:41;;;;;;;53.40;24.30;;;;;;;;;;5037424;28;20410;-72
2024/03/03 07:50:08;;;;;;;55.50;24.23;;;;;;;;;;5033066;28;20423;-74
2024/03/03 07:52:34;;;;;;;52.73;25.10;;;;;;;;;;5033188;28;20413;-71
2024/03/03 07:54:59;;;;;;;53.47;21.97;;;;;;;;;;5019626;28;20446;-71
2024/03/03 07:57:26;;;;;;;52.73;23.27;;;;;;;;;;5012058;28;20419;-74
2024/03/03 07:59:52;;;;;;;57.20;24.27;;;;;;;;;;5013320;28;20486;-74
2024/03/03 08:02:18;;;;;;;52.77;24.27;;;;;;;;;;5012293;28;20422;-73
2024/03/03 08:04:44;;;;;;;52.20;24.77;;;;;;;;;;5015785;28;20438;-73
2024/03/03 08:07:10;;;;;;;47.47;24.20;;;;;;;;;;5015617;28;20429;-73
2024/03/03 08:09:36;;;;;;;51.87;24.27;;;;;;;;;;5017186;28;20414;-73
2024/03/03 08:12:02;;;;;;;48.90;21.23;;;;;;;;;;5016882;28;20414;-72
2024/03/03 08:14:28;;;;;;;39.20;18.60;;;;;;;;;;5017043;28;20928;-74
2024/03/03 08:16:54;;;;;;;46.73;19.20;;;;;;;;;;5016677;28;20421;-72
2024/03/03 08:19:20;;;;;;;43.93;20.53;;;;;;;;;;5016161;28;20468;-72
2024/03/03 08:21:46;;;;;;;53.00;23.70;;;;;;;;;;5017848;28;20473;-72
2024/03/03 08:24:12;;;;;;;44.43;19.90;;;;;;;;;;5017645;28;20521;-72
2024/03/03 08:26:38;;;;;;;41.23;18.07;;;;;;;;;;5017385;28;20488;-72
2024/03/03 08:29:04;;;;;;;52.20;23.07;;;;;;;;;;5018024;28;20468;-72
2024/03/03 08:31:33;;;;;;;48.87;22.53;;;;;;;;;;5020699;28;20448;-73
2024/03/03 08:33:59;;;;;;;51.87;23.13;;;;;;;;;;5032695;28;20418;-72
2024/03/03 08:36:25;;;;;;;46.43;20.27;;;;;;;;;;5033650;28;20444;-74
2024/03/03 08:38:51;;;;;;;41.57;21.57;;;;;;;;;;5034711;28;20457;-73
2024/03/03 08:41:17;;;;;;;49.70;20.80;;;;;;;;;;5032270;28;20418;-72
2024/03/03 08:43:43;;;;;;;45.00;21.30;;;;;;;;;;5021789;28;20418;-73
2024/03/03 08:46:09;;;;;;;36.73;17.80;;;;;;;;;;5028774;28;20442;-72
2024/03/03 08:48:35;;;;;;;42.33;18.60;;;;;;;;;;5027314;28;20916;-73
2024/03/03 08:51:06;;;;;;;35.93;19.03;;;;;;;;;;5022224;28;20905;-73
2024/03/03 08:53:33;;;;;;;37.53;18.80;;;;;;;;;;5019715;28;20940;-73
2024/03/03 08:55:59;;;;;;;39.60;19.17;;;;;;;;;;5019139;28;20425;-73
2024/03/03 08:58:26;;;;;;;37.90;17.80;;;;;;;;;;5022375;28;20464;-73
2024/03/03 09:00:52;;;;;;;34.73;17.03;;;;;;;;;;5024067;28;20431;-72
2024/03/03 09:03:18;;;;;;;31.93;16.33;;;;;;;;;;5017695;28;20419;-72
2024/03/03 09:05:44;;;;;;;36.87;17.60;;;;;;;;;;5016428;28;20477;-74
2024/03/03 09:08:10;;;;;;;39.77;18.40;;;;;;;;;;5016184;28;20406;-72
2024/03/03 09:10:37;;;;;;;35.73;17.27;;;;;;;;;;5015389;28;20415;-72
2024/03/03 09:13:03;;;;;;;36.40;16.90;;;;;;;;;;5017386;28;20414;-72
2024/03/03 09:15:29;;;;;;;39.10;17.77;;;;;;;;;;5015248;28;20453;-72
2024/03/03 09:17:55;;;;;;;31.70;16.40;;;;;;;;;;5016986;28;20776;-73
2024/03/03 09:20:21;;;;;;;33.07;17.53;;;;;;;;;;5015282;28;20489;-73
2024/03/03 09:22:47;;;;;;;35.00;17.20;;;;;;;;;;5015516;28;20410;-73
2024/03/03 09:25:13;;;;;;;32.53;16.27;;;;;;;;;;5015211;28;20466;-72
2024/03/03 09:27:39;;;;;;;42.20;21.40;;;;;;;;;;5014965;28;20454;-71
2024/03/03 09:30:06;;;;;;;41.60;20.33;;;;;;;;;;5015061;28;20418;-72
2024/03/03 09:32:32;;;;;;;47.57;21.27;;;;;;;;;;5015034;28;20819;-72
2024/03/03 09:34:58;;;;;;;42.60;20.37;;;;;;;;;;5014384;28;20442;-72
2024/03/03 09:37:24;;;;;;;44.03;20.37;;;;;;;;;;5013779;28;20422;-73
2024/03/03 09:39:50;;;;;;;39.27;19.00;;;;;;;;;;5014953;28;21053;-74
2024/03/03 09:42:16;;;;;;;41.20;19.90;;;;;;;;;;5014752;28;20959;-74
2024/03/03 09:44:42;;;;;;;41.30;21.23;;;;;;;;;;5014456;28;20520;-72
2024/03/03 09:47:10;;;;;;;40.63;19.37;;;;;;;;;;5014624;28;20410;-72
2024/03/03 09:49:38;;;;;;;42.33;19.57;;;;;;;;;;5014811;28;20410;-74
2024/03/03 09:52:06;;;;;;;44.47;20.00;;;;;;;;;;5020172;28;20411;-72
2024/03/03 09:54:33;;;;;;;36.57;19.80;;;;;;;;;;5014582;28;20571;-73
2024/03/03 09:56:59;;;;;;;37.43;19.60;;;;;;;;;;5014832;28;20414;-73
2024/03/03 09:59:25;;;;;;;43.10;18.90;;;;;;;;;;5014553;28;21033;-74
2024/03/03 10:01:51;;;;;;;39.57;19.30;;;;;;;;;;5014616;28;20438;-74
2024/03/03 10:04:18;;;;;;;45.03;21.20;;;;;;;;;;5012460;28;20978;-74
2024/03/03 10:06:45;;;;;;;33.50;17.70;;;;;;;;;;5014220;28;20544;-73
2024/03/03 10:09:12;;;;;;;42.63;19.17;;;;;;;;;;5013181;28;20520;-73
2024/03/03 10:11:41;;;;;;;34.63;17.13;;;;;;;;;;5014184;28;20421;-71
2024/03/03 10:14:09;;;;;;;32.77;18.60;;;;;;;;;;5013489;28;20442;-73
2024/03/03 10:16:36;;;;;;;34.27;17.30;;;;;;;;;;5014548;28;20993;-72
2024/03/03 10:19:03;;;;;;;31.50;17.07;;;;;;;;;;5012730;28;20470;-72
2024/03/03 10:21:36;;;;;;;35.03;17.83;;;;;;;;;;5015491;28;20941;-73
2024/03/03 10:24:18;;;;;;;34.90;17.57;;;;;;;;;;5028457;28;21018;-74
2024/03/03 10:26:44;;;;;;;33.53;16.80;;;;;;;;;;5035675;28;20430;-74
2024/03/03 10:29:10;;;;;;;31.67;17.07;;;;;;;;;;5036345;28;20414;-74
2024/03/03 10:31:36;;;;;;;27.50;16.23;;;;;;;;;;5033899;28;20421;-74
2024/03/03 10:34:02;;;;;;;33.43;18.17;;;;;;;;;;5034153;28;20422;-74
2024/03/03 10:36:29;;;;;;;31.63;16.63;;;;;;;;;;5035895;28;20429;-74
2024/03/03 10:38:54;;;;;;;34.50;18.27;;;;;;;;;;5032903;28;20481;-73
2024/03/03 10:41:20;;;;;;;26.73;15.90;;;;;;;;;;5030930;28;20502;-73
2024/03/03 10:43:47;;;;;;;33.40;17.20;;;;;;;;;;5029845;28;20403;-74
2024/03/03 10:46:13;;;;;;;32.83;18.63;;;;;;;;;;5027695;28;20422;-72
2024/03/03 10:48:42;;;;;;;37.50;19.53;;;;;;;;;;5028816;28;20418;-74
2024/03/03 10:51:08;;;;;;;33.57;17.90;;;;;;;;;;5033515;28;20415;-73
2024/03/03 10:53:34;;;;;;;32.23;17.10;;;;;;;;;;5033166;28;20420;-74
2024/03/03 10:56:00;;;;;;;31.43;16.33;;;;;;;;;;5024404;28;20430;-73
2024/03/03 10:58:27;;;;;;;33.70;16.77;;;;;;;;;;5016435;28;20799;-73
2024/03/03 11:00:54;;;;;;;27.20;14.50;;;;;;;;;;5016294;28;20478;-73
2024/03/03 11:03:20;;;;;;;32.67;17.03;;;;;;;;;;5016250;28;20898;-73
2024/03/03 11:05:47;;;;;;;29.07;15.00;;;;;;;;;;5012723;28;20908;-72
2024/03/03 11:08:14;;;;;;;35.17;16.17;;;;;;;;;;5014514;28;20429;-74
2024/03/03 11:10:40;;;;;;;32.17;17.13;;;;;;;;;;5012877;28;20418;-72
2024/03/03 11:13:06;;;;;;;27.90;13.93;;;;;;;;;;5013614;28;20498;-73
2024/03/03 11:15:37;;;;;;;27.97;15.80;;;;;;;;;;5013785;28;20456;-72
2024/03/03 11:18:04;;;;;;;30.40;15.67;;;;;;;;;;5013358;28;20774;-74
2024/03/03 11:20:37;;;;;;;27.80;14.53;;;;;;;;;;5012898;28;20465;-74
2024/03/03 11:23:18;;;;;;;34.10;15.20;;;;;;;;;;5013122;28;20476;-74
2024/03/03 11:26:00;;;;;;;35.90;14.90;;;;;;;;;;5013946;28;20483;-73
2024/03/03 11:28:28;;;;;;;29.30;13.37;;;;;;;;;;5014618;28;20760;-74
2024/03/03 11:30:54;;;;;;;31.33;15.67;;;;;;;;;;5014282;28;20925;-74
2024/03/03 11:33:21;;;;;;;30.90;16.40;;;;;;;;;;5014142;28;20437;-75
2024/03/03 11:35:47;;;;;;;31.30;16.30;;;;;;;;;;5013939;28;20483;-72
2024/03/03 11:38:13;;;;;;;28.37;13.90;;;;;;;;;;5019034;28;20414;-73
2024/03/03 11:40:43;;;;;;;27.77;14.87;;;;;;;;;;5032679;28;20410;-74
2024/03/03 11:43:10;;;;;;;29.77;15.33;;;;;;;;;;5034401;28;20412;-73
2024/03/03 11:45:48;;;;;;;24.10;13.80;;;;;;;;;;5033616;28;20450;-74
2024/03/03 11:48:14;;;;;;;28.97;16.10;;;;;;;;;;5036245;28;20426;-73
2024/03/03 11:50:40;;;;;;;26.80;14.03;;;;;;;;;;5035791;28;20414;-74
2024/03/03 11:53:06;;;;;;;27.00;14.70;;;;;;;;;;5014780;28;20897;-72
2024/03/03 11:55:38;;;;;;;24.40;14.97;;;;;;;;;;5012374;28;20441;-73
2024/03/03 11:58:05;;;;;;;29.07;15.20;;;;;;;;;;5015380;28;20468;-73
2024/03/03 12:00:31;;;;;;;29.07;14.70;;;;;;;;;;5015487;28;20468;-72
2024/03/03 12:02:58;;;;;;;28.37;14.47;;;;;;;;;;5013201;28;20422;-74
2024/03/03 12:05:25;;;;;;;28.80;14.90;;;;;;;;;;5013838;28;20441;-73
2024/03/03 12:07:52;;;;;;;24.90;14.50;;;;;;;;;;5012796;28;20417;-73
2024/03/03 12:10:29;;;;;;;26.67;14.23;;;;;;;;;;5015324;28;20859;-74
2024/03/03 12:12:55;;;;;;;29.33;15.80;;;;;;;;;;5018649;28;20422;-74
2024/03/03 12:15:25;;;;;;;27.00;14.27;;;;;;;;;;5037208;22;20498;-76
2024/03/03 12:17:52;;;;;;;25.57;14.03;;;;;;;;;;5009766;28;20419;-75
2024/03/03 12:20:20;;;;;;;20.53;13.63;;;;;;;;;;5011361;28;20532;-75
2024/03/03 12:22:46;;;;;;;20.83;13.07;;;;;;;;;;5011423;28;20415;-75
2024/03/03 12:25:14;;;;;;;22.70;13.17;;;;;;;;;;5011236;28;20524;-76
2024/03/03 12:27:46;;;;;;;19.57;12.97;;;;;;;;;;5011114;28;20414;-75
2024/03/03 12:30:17;;;;;;;21.40;12.73;;;;;;;;;;5011172;28;20425;-76
2024/03/03 12:32:43;;;;;;;23.60;13.40;;;;;;;;;;5011165;28;20418;-75
2024/03/03 12:35:09;;;;;;;22.30;12.37;;;;;;;;;;5009507;28;20499;-76
2024/03/03 12:37:35;;;;;;;26.93;14.03;;;;;;;;;;5009680;28;20511;-76
2024/03/03 12:40:01;;;;;;;21.13;11.73;;;;;;;;;;5010924;28;20470;-75
2024/03/03 12:42:27;;;;;;;19.13;12.43;;;;;;;;;;5010785;28;20455;-76
2024/03/03 12:44:53;;;;;;;19.67;11.80;;;;;;;;;;5010664;28;20763;-76
2024/03/03 12:47:19;;;;;;;21.70;11.10;;;;;;;;;;5011190;28;20438;-75
2024/03/03 12:49:45;;;;;;;19.33;10.63;;;;;;;;;;5012401;28;20410;-76
2024/03/03 12:52:12;;;;;;;14.70;9.60;;;;;;;;;;5014756;28;20480;-76
2024/03/03 12:54:39;;;;;;;19.00;10.97;;;;;;;;;;5014284;28;20430;-75
2024/03/03 12:57:05;;;;;;;15.90;9.30;;;;;;;;;;5014332;28;20420;-75
2024/03/03 12:59:34;;;;;;;15.13;9.60;;;;;;;;;;5014175;28;20469;-75
2024/03/03 13:02:00;;;;;;;20.40;10.17;;;;;;;;;;5014250;28;20414;-73
2024/03/03 13:04:30;;;;;;;16.27;9.83;;;;;;;;;;5012190;28;20457;-74
2024/03/03 13:07:00;;;;;;;13.13;8.73;;;;;;;;;;5012738;28;20458;-75
2024/03/03 13:09:27;;;;;;;18.87;9.63;;;;;;;;;;5013969;28;20415;-74
2024/03/03 13:11:54;;;;;;;16.57;9.83;;;;;;;;;;5012674;28;20418;-74
2024/03/03 13:14:21;;;;;;;8.90;5.77;;;;;;;;;;5013361;28;20425;-74
2024/03/03 13:16:59;;;;;;;11.13;7.30;;;;;;;;;;5014053;28;20422;-75
2024/03/03 13:19:25;;;;;;;11.23;6.80;;;;;;;;;;5013906;28;20763;-74
2024/03/03 13:22:01;;;;;;;8.00;5.23;;;;;;;;;;5014386;28;20406;-76
2024/03/03 13:24:28;;;;;;;11.90;6.90;;;;;;;;;;5013691;28;20437;-74
2024/03/03 13:26:54;;;;;;;8.47;5.60;;;;;;;;;;5012462;28;20473;-74
2024/03/03 13:29:20;;;;;;;9.23;5.67;;;;;;;;;;5013627;28;20991;-75
2024/03/03 13:31:46;;;;;;;8.80;4.20;;;;;;;;;;5013482;28;20418;-74
2024/03/03 13:34:11;;;;;;;6.37;4.40;;;;;;;;;;5011792;28;20891;-74
2024/03/03 13:36:37;;;;;;;11.37;4.77;;;;;;;;;;5013115;28;20422;-75
2024/03/03 13:39:04;;;;;;;6.90;4.47;;;;;;;;;;5013451;28;20462;-75
2024/03/03 13:41:29;;;;;;;5.30;3.63;;;;;;;;;;5013438;28;20968;-74
2024/03/03 13:43:55;;;;;;;4.10;2.57;;;;;;;;;;5011984;28;20422;-74
2024/03/03 13:46:21;;;;;;;4.07;2.90;;;;;;;;;;5013476;28;20429;-74
2024/03/03 13:48:47;;;;;;;3.33;2.80;;;;;;;;;;5013432;28;20524;-75
2024/03/03 13:51:14;;;;;;;4.20;2.70;;;;;;;;;;5013627;28;20418;-74
2024/03/03 13:53:40;;;;;;;4.07;2.93;;;;;;;;;;5012166;28;20470;-75
2024/03/03 13:56:06;;;;;;;4.00;2.60;;;;;;;;;;5013978;28;20484;-75
2024/03/03 13:58:32;;;;;;;3.17;2.07;;;;;;;;;;5013337;28;20487;-75
2024/03/03 14:00:59;;;;;;;3.90;2.60;;;;;;;;;;5012802;28;20418;-74
2024/03/03 14:03:29;;;;;;;4.17;2.50;;;;;;;;;;5012517;28;20422;-75
2024/03/03 14:05:55;;;;;;;3.03;2.27;;;;;;;;;;5012575;28;20437;-74
2024/03/03 14:08:21;;;;;;;3.47;2.40;;;;;;;;;;5013645;28;20627;-74
2024/03/03 14:10:46;;;;;;;3.30;2.60;;;;;;;;;;5013734;28;20505;-74
2024/03/03 14:13:12;;;;;;;4.40;2.93;;;;;;;;;;5012137;28;20434;-74
2024/03/03 14:15:38;;;;;;;5.77;2.80;;;;;;;;;;5013794;28;20505;-74
2024/03/03 14:18:04;;;;;;;6.10;3.60;;;;;;;;;;5013836;28;20425;-74
2024/03/03 14:20:31;;;;;;;3.73;3.03;;;;;;;;;;5013311;28;20461;-73
2024/03/03 14:22:58;;;;;;;5.50;2.33;;;;;;;;;;5011969;28;20437;-74
2024/03/03 14:25:24;;;;;;;4.77;2.70;;;;;;;;;;5011492;28;20460;-76
2024/03/03 14:27:50;;;;;;;3.73;1.93;;;;;;;;;;5012812;28;20858;-74
2024/03/03 14:30:16;;;;;;;2.30;1.70;;;;;;;;;;5013188;28;20460;-74
2024/03/03 14:32:42;;;;;;;2.80;1.73;;;;;;;;;;5013519;28;20778;-74
2024/03/03 14:35:09;;;;;;;2.50;1.50;;;;;;;;;;5023782;28;20452;-74
2024/03/03 14:37:35;;;;;;;2.80;1.67;;;;;;;;;;5035572;28;20414;-76
2024/03/03 14:40:01;;;;;;;2.47;1.33;;;;;;;;;;5030457;28;20469;-76
2024/03/03 14:42:28;;;;;;;2.50;1.30;;;;;;;;;;5031543;28;20421;-75
2024/03/03 14:44:54;;;;;;;2.40;1.20;;;;;;;;;;5023793;28;20403;-74
2024/03/03 14:47:20;;;;;;;2.87;1.63;;;;;;;;;;5013379;28;20395;-73
2024/03/03 14:49:46;;;;;;;2.90;1.60;;;;;;;;;;5013544;28;20497;-71
2024/03/03 14:52:12;;;;;;;2.07;1.77;;;;;;;;;;5013093;28;20801;-72
2024/03/03 14:54:37;;;;;;;4.70;1.87;;;;;;;;;;5015192;28;20434;-74
2024/03/03 14:57:04;;;;;;;3.07;1.90;;;;;;;;;;5012409;28;20450;-72
2024/03/03 14:59:30;;;;;;;3.30;2.00;;;;;;;;;;5012126;28;20821;-75
2024/03/03 15:01:56;;;;;;;3.10;1.93;;;;;;;;;;5008757;28;20422;-72
2024/03/03 15:04:22;;;;;;;5.83;2.33;;;;;;;;;;5006699;28;20905;-74
2024/03/03 15:06:48;;;;;;;2.60;1.77;;;;;;;;;;5012583;28;20416;-73
2024/03/03 15:09:14;;;;;;;3.67;1.60;;;;;;;;;;5011546;28;20932;-73
2024/03/03 15:11:40;;;;;;;4.20;1.93;;;;;;;;;;5012938;28;20426;-73
2024/03/03 15:14:06;;;;;;;2.77;1.60;;;;;;;;;;5004706;28;20657;-72
2024/03/03 15:16:32;;;;;;;2.30;1.50;;;;;;;;;;5006133;28;20468;-72
2024/03/03 15:18:57;;;;;;;2.00;1.40;;;;;;;;;;5013080;28;20465;-72
2024/03/03 15:21:23;;;;;;;3.20;1.90;;;;;;;;;;5006422;28;20532;-72
2024/03/03 15:23:49;;;;;;;1.97;1.40;;;;;;;;;;5012432;28;20500;-73
2024/03/03 15:26:20;;;;;;;3.73;1.70;;;;;;;;;;5010899;28;20450;-72
2024/03/03 15:28:46;;;;;;;2.43;1.50;;;;;;;;;;5013226;28;20421;-72
2024/03/03 15:31:12;;;;;;;1.93;1.30;;;;;;;;;;5011122;28;20925;-73
2024/03/03 15:33:38;;;;;;;1.77;1.47;;;;;;;;;;5010993;28;20565;-73
2024/03/03 15:36:05;;;;;;;2.30;1.33;;;;;;;;;;5011203;28;20445;-73
2024/03/03 15:38:31;;;;;;;1.90;1.33;;;;;;;;;;5011285;28;20456;-73
2024/03/03 15:40:57;;;;;;;1.80;1.30;;;;;;;;;;5012149;28;20414;-72
2024/03/03 15:43:23;;;;;;;1.93;1.40;;;;;;;;;;5014288;28;20421;-73
2024/03/03 15:45:49;;;;;;;5.93;1.50;;;;;;;;;;5013965;28;20517;-72
2024/03/03 15:48:16;;;;;;;1.20;1.03;;;;;;;;;;5012716;28;20427;-72
2024/03/03 15:50:42;;;;;;;3.80;1.90;;;;;;;;;;5012317;28;20924;-73
2024/03/03 15:53:08;;;;;;;2.27;1.40;;;;;;;;;;5011003;28;20414;-73
2024/03/03 15:55:35;;;;;;;2.67;1.60;;;;;;;;;;5011250;28;20733;-73
2024/03/03 15:58:01;;;;;;;2.67;1.37;;;;;;;;;;5011799;28;20512;-73
2024/03/03 16:00:27;;;;;;;2.23;1.40;;;;;;;;;;5019541;28;20963;-73
2024/03/03 16:02:53;;;;;;;1.60;1.30;;;;;;;;;;5013430;28;20493;-73
2024/03/03 16:05:19;;;;;;;2.93;1.80;;;;;;;;;;5011459;28;20513;-73
2024/03/03 16:07:46;;;;;;;2.70;1.50;;;;;;;;;;5011684;28;20762;-73
2024/03/03 16:10:12;;;;;;;2.80;2.00;;;;;;;;;;5011514;28;20533;-73
2024/03/03 16:12:39;;;;;;;5.27;2.10;;;;;;;;;;5011438;28;20410;-74
2024/03/03 16:15:05;;;;;;;2.27;1.83;;;;;;;;;;5010970;28;20464;-74
2024/03/03 16:17:31;;;;;;;5.23;2.40;;;;;;;;;;5011140;28;20414;-74
2024/03/03 16:19:57;;;;;;;13.20;2.93;;;;;;;;;;5009875;28;21007;-74
2024/03/03 16:22:23;;;;;;;6.30;2.60;;;;;;;;;;5011236;28;20406;-73
2024/03/03 16:24:49;;;;;;;5.13;3.17;;;;;;;;;;5012091;28;20432;-74
2024/03/03 16:27:15;;;;;;;4.77;2.70;;;;;;;;;;5014648;28;20406;-74
2024/03/03 16:29:41;;;;;;;6.37;2.57;;;;;;;;;;5014709;28;20472;-74
2024/03/03 16:32:08;;;;;;;4.37;2.40;;;;;;;;;;5014477;28;20929;-74
2024/03/03 16:34:34;;;;;;;3.53;2.13;;;;;;;;;;5014638;28;20476;-74
2024/03/03 16:37:00;;;;;;;4.07;2.00;;;;;;;;;;5014901;28;20470;-74
2024/03/03 16:39:26;;;;;;;3.90;2.47;;;;;;;;;;5013494;28;20988;-73
2024/03/03 16:41:52;;;;;;;6.40;2.60;;;;;;;;;;5014875;28;20445;-74
2024/03/03 16:44:18;;;;;;;3.67;1.97;;;;;;;;;;5013108;28;20418;-74
2024/03/03 16:46:44;;;;;;;3.33;2.10;;;;;;;;;;5013456;28;21002;-74
2024/03/03 16:49:10;;;;;;;5.70;2.60;;;;;;;;;;5014676;28;20759;-74
2024/03/03 16:51:36;;;;;;;5.97;2.37;;;;;;;;;;5014690;28;20500;-74
2024/03/03 16:54:02;;;;;;;3.00;2.43;;;;;;;;;;5014509;28;20936;-74
2024/03/03 16:56:28;;;;;;;4.27;2.37;;;;;;;;;;5014427;28;20438;-74
2024/03/03 16:58:55;;;;;;;2.43;2.20;;;;;;;;;;5014227;28;20995;-74
2024/03/03 17:01:21;;;;;;;4.83;2.60;;;;;;;;;;5014345;28;20406;-74
2024/03/03 17:03:47;;;;;;;4.10;2.40;;;;;;;;;;5014081;28;20406;-73
2024/03/03 17:06:15;;;;;;;5.50;3.30;;;;;;;;;;5013101;28;20460;-73
2024/03/03 17:08:41;;;;;;;6.67;3.03;;;;;;;;;;5014239;28;20959;-73
2024/03/03 17:11:08;;;;;;;3.57;2.47;;;;;;;;;;5014472;28;20536;-73
2024/03/03 17:13:34;;;;;;;5.27;2.70;;;;;;;;;;5014157;28;20956;-73
2024/03/03 17:16:00;;;;;;;5.23;3.40;;;;;;;;;;5013987;28;20442;-73
2024/03/03 17:18:26;;;;;;;10.57;6.20;;;;;;;;;;5014043;28;20493;-73
2024/03/03 17:20:53;;;;;;;25.60;14.30;;;;;;;;;;5014189;28;20482;-72
2024/03/03 17:23:20;;;;;;;30.47;17.53;;;;;;;;;;5013876;28;20428;-72
2024/03/03 17:25:46;;;;;;;23.97;11.93;;;;;;;;;;5014188;28;20488;-73
2024/03/03 17:28:12;;;;;;;17.33;10.60;;;;;;;;;;5014184;28;20469;-72
2024/03/03 17:30:38;;;;;;;17.70;10.73;;;;;;;;;;5013848;28;20442;-72
2024/03/03 17:33:04;;;;;;;22.10;12.60;;;;;;;;;;5013300;28;20439;-72
2024/03/03 17:35:31;;;;;;;19.03;9.87;;;;;;;;;;5013259;28;20885;-73
2024/03/03 17:37:57;;;;;;;12.67;7.20;;;;;;;;;;5013872;28;20415;-72
2024/03/03 17:40:26;;;;;;;15.20;8.20;;;;;;;;;;5013605;28;20465;-72
2024/03/03 17:42:52;;;;;;;15.27;7.93;;;;;;;;;;5013975;28;20410;-73
2024/03/03 17:45:18;;;;;;;11.67;6.50;;;;;;;;;;5013806;28;20457;-73
2024/03/03 17:47:44;;;;;;;14.17;7.23;;;;;;;;;;5027840;28;20431;-73
2024/03/03 17:50:10;;;;;;;12.33;8.03;;;;;;;;;;5039028;28;20449;-73
2024/03/03 17:52:36;;;;;;;18.57;8.83;;;;;;;;;;5033507;28;20530;-71
2024/03/03 17:55:03;;;;;;;15.67;8.77;;;;;;;;;;5013893;28;20929;-72
2024/03/03 17:57:32;;;;;;;13.20;7.17;;;;;;;;;;5013482;28;20449;-72
2024/03/03 17:59:58;;;;;;;16.20;9.73;;;;;;;;;;5013614;28;20473;-72
2024/03/03 18:02:24;;;;;;;21.30;8.93;;;;;;;;;;5013569;28;20746;-72
2024/03/03 18:04:50;;;;;;;21.80;9.80;;;;;;;;;;5012914;28;20452;-72
2024/03/03 18:07:16;;;;;;;19.97;9.20;;;;;;;;;;5012349;28;20410;-71
2024/03/03 18:09:44;;;;;;;14.53;8.70;;;;;;;;;;5012344;28;20774;-73
2024/03/03 18:12:10;;;;;;;14.47;7.83;;;;;;;;;;5012597;28;20442;-72
2024/03/03 18:14:37;;;;;;;17.67;9.27;;;;;;;;;;5012516;28;20449;-72
2024/03/03 18:17:03;;;;;;;15.37;8.53;;;;;;;;;;5012450;28;20421;-72
2024/03/03 18:19:29;;;;;;;21.83;9.20;;;;;;;;;;5012318;28;20556;-71
2024/03/03 18:21:56;;;;;;;17.00;7.17;;;;;;;;;;5012347;28;20406;-72
2024/03/03 18:24:23;;;;;;;11.43;4.90;;;;;;;;;;5010836;28;20410;-71
2024/03/03 18:26:49;;;;;;;19.30;9.23;;;;;;;;;;5012339;28;20457;-71
2024/03/03 18:29:16;;;;;;;10.77;5.43;;;;;;;;;;5012228;28;20500;-72
2024/03/03 18:31:42;;;;;;;12.10;5.53;;;;;;;;;;5011875;28;20410;-72
2024/03/03 18:34:12;;;;;;;11.50;5.47;;;;;;;;;;5010713;28;20425;-72
2024/03/03 18:36:38;;;;;;;7.37;5.10;;;;;;;;;;5011929;28;20421;-71
2024/03/03 18:39:06;;;;;;;15.13;6.20;;;;;;;;;;5012106;28;20803;-71
2024/03/03 18:41:32;;;;;;;9.57;5.33;;;;;;;;;;5011973;28;20460;-71
2024/03/03 18:43:58;;;;;;;8.07;4.80;;;;;;;;;;5011873;28;20907;-72
2024/03/03 18:46:24;;;;;;;14.77;5.33;;;;;;;;;;5010475;28;20457;-71
2024/03/03 18:48:51;;;;;;;13.53;6.40;;;;;;;;;;5011715;28;20953;-71
2024/03/03 18:51:19;;;;;;;11.30;5.77;;;;;;;;;;5011814;28;20507;-71
2024/03/03 18:53:45;;;;;;;12.87;6.30;;;;;;;;;;5011772;28;20428;-71
2024/03/03 18:56:11;;;;;;;7.80;5.10;;;;;;;;;;5011628;28;20580;-71
2024/03/03 18:58:37;;;;;;;14.87;7.53;;;;;;;;;;5011876;28;20422;-72
2024/03/03 19:01:03;;;;;;;12.43;7.10;;;;;;;;;;5011649;28;20402;-72
2024/03/03 19:03:30;;;;;;;10.50;6.73;;;;;;;;;;5011678;28;20489;-72
2024/03/03 19:05:57;;;;;;;14.90;6.83;;;;;;;;;;5011690;28;20425;-72
2024/03/03 19:08:22;;;;;;;12.40;6.83;;;;;;;;;;5011612;28;20510;-72
2024/03/03 19:10:49;;;;;;;11.40;7.00;;;;;;;;;;5010525;28;20422;-72
2024/03/03 19:13:15;;;;;;;14.70;7.87;;;;;;;;;;5011629;28;20865;-72
2024/03/03 19:15:41;;;;;;;14.77;6.57;;;;;;;;;;5011325;28;20465;-72
2024/03/03 19:18:07;;;;;;;15.40;6.73;;;;;;;;;;5011574;28;20905;-72
2024/03/03 19:20:33;;;;;;;12.43;6.50;;;;;;;;;;5010117;28;20467;-72
2024/03/03 19:22:59;;;;;;;16.73;7.40;;;;;;;;;;5011537;28;20888;-72
2024/03/03 19:25:25;;;;;;;9.53;6.30;;;;;;;;;;5009885;28;20433;-72
2024/03/03 19:27:51;;;;;;;16.97;6.50;;;;;;;;;;5011398;28;20471;-72
2024/03/03 19:30:17;;;;;;;14.10;6.27;;;;;;;;;;5009952;28;20426;-72
2024/03/03 19:32:43;;;;;;;18.93;7.70;;;;;;;;;;5011420;28;20449;-72
2024/03/03 19:35:09;;;;;;;15.07;7.20;;;;;;;;;;5011004;28;20496;-71
2024/03/03 19:37:36;;;;;;;10.87;6.60;;;;;;;;;;5011487;28;20451;-71
2024/03/03 19:40:02;;;;;;;13.50;6.70;;;;;;;;;;5011312;28;20573;-72
2024/03/03 19:42:30;;;;;;;14.10;7.27;;;;;;;;;;5011478;28;20410;-72
2024/03/03 19:44:56;;;;;;;13.47;8.03;;;;;;;;;;5011122;28;20517;-72
2024/03/03 19:47:22;;;;;;;14.23;7.87;;;;;;;;;;5011252;28;20402;-72
2024/03/03 19:49:48;;;;;;;12.83;7.40;;;;;;;;;;5011637;28;20457;-72
2024/03/03 19:52:14;;;;;;;15.40;9.10;;;;;;;;;;5011387;28;20449;-73
2024/03/03 19:54:41;;;;;;;15.93;8.87;;;;;;;;;;5010974;28;20859;-72
2024/03/03 19:57:10;;;;;;;15.03;8.97;;;;;;;;;;5011618;28;20418;-72
2024/03/03 19:59:36;;;;;;;21.40;11.17;;;;;;;;;;5012393;28;20464;-71
2024/03/03 20:02:02;;;;;;;22.07;11.37;;;;;;;;;;5015236;28;20410;-72
2024/03/03 20:04:28;;;;;;;18.70;9.60;;;;;;;;;;5014999;28;20408;-75
2024/03/03 20:06:54;;;;;;;19.33;10.70;;;;;;;;;;5015879;28;20410;-72
2024/03/03 20:09:20;;;;;;;21.37;9.40;;;;;;;;;;5015989;28;20471;-73
2024/03/03 20:11:47;;;;;;;17.73;10.03;;;;;;;;;;5016015;28;20428;-72
2024/03/03 20:14:13;;;;;;;20.80;10.37;;;;;;;;;;5015316;28;20905;-72
2024/03/03 20:16:39;;;;;;;20.00;10.57;;;;;;;;;;5014265;28;20921;-72
2024/03/03 20:19:05;;;;;;;24.30;10.10;;;;;;;;;;5015068;28;20468;-72
2024/03/03 20:21:31;;;;;;;23.27;10.80;;;;;;;;;;5014940;28;20472;-72
2024/03/03 20:24:00;;;;;;;20.93;11.00;;;;;;;;;;5014835;28;20480;-72
2024/03/03 20:26:26;;;;;;;16.60;8.93;;;;;;;;;;5014816;28;20437;-72